Home   Weather   France   Saint-Étienne   Past weeks
Flag for France

Past Weather in Saint-Étienne, Loire, France — Yesterday and Last 2 Weeks

Currently: 32 °F. Sunny. (Weather station: St-Etienne Boutheon, France). See more current weather

Past Weather in Saint-Étienne — Graph

°F

Saint-Étienne Temperature Yesterday

Maximum temperature yesterday: 41 °F (at 1:00 pm)
Minimum temperature yesterday: 32 °F (at 11:00 pm)
Average temperature yesterday: 38 °F

High & Low Weather Summary for the Past Weeks

 TemperatureHumidityPressure
High59 °F (Nov 23, 2:30 pm)100% (Nov 25, 8:30 pm)30.45 "Hg (Nov 25, 8:30 pm)
Low25 °F (Dec 5, 6:30 am)43% (Nov 20, 2:00 pm)29.47 "Hg (Nov 21, 6:00 pm)
Average43 °F84%29.98 "Hg
* Reported Nov 20 10:00 am — Dec 5 10:00 am, Saint-Étienne. Weather by CustomWeather, © 2022

Note: Actual official high and low records may vary slightly from our data, if they occured in-between our weather recording intervals... More about our weather records

Saint-Étienne Weather History for the Previous 24 Hours

Scroll right to see more
 ConditionsComfort  
Time TempWeatherWind HumidityBarometerVisibility
10:00 am
Mon, Dec 5
30 °FPassing clouds.2 mph93%30.12 "Hg4 mi
9:30 am28 °FIce fog.1 mph93%30.12 "Hg2 mi
9:00 am27 °FIce fog.1 mph93%30.12 "Hg0 mi
8:30 am25 °FLight snow. Ice fog.1 mph100%30.09 "Hg1 mi
8:00 am25 °FLight snow. Ice fog.5 mph100%30.09 "Hg1 mi
7:30 am27 °FIce fog.2 mph100%30.09 "Hg0 mi
7:00 am25 °FIce fog.2 mph100%30.07 "Hg0 mi
6:30 am25 °FIce fog.2 mph100%30.07 "Hg1 mi
6:00 am27 °FIce fog.2 mph93%30.04 "Hg2 mi
5:30 am27 °FPassing clouds.5 mph93%30.04 "HgN/A
5:00 am28 °FClear.No wind93%30.04 "Hg6 mi
4:30 am28 °FClear.No wind100%30.04 "Hg10 mi
4:00 am30 °FClear.2 mph93%30.04 "Hg10 mi
3:30 am28 °FClear.7 mph93%30.01 "Hg10 mi
3:00 am30 °FClear.5 mph93%30.01 "Hg10 mi
2:30 am30 °FClear.6 mph93%30.01 "Hg10 mi
2:00 am30 °FClear.6 mph93%30.01 "Hg10 mi
12:30 am32 °FClear.8 mph93%29.98 "Hg10 mi
12:00 am34 °FClear.10 mph93%29.98 "Hg10 mi
11:30 pm
Sun, Dec 4
32 °FClear.10 mph93%29.98 "Hg10 mi
11:00 pm32 °FClear.8 mph93%29.95 "Hg10 mi
10:30 pm34 °FClear.8 mph87%29.95 "Hg10 mi
10:00 pm37 °FClear.7 mph81%29.95 "Hg10 mi
9:30 pm36 °FClear.8 mph87%29.92 "Hg10 mi
9:00 pm36 °FClear.8 mph87%29.92 "Hg10 mi
8:30 pm36 °FPassing clouds.3 mph87%29.92 "HgN/A
8:00 pm37 °FPassing clouds.No wind87%29.89 "HgN/A
7:30 pm37 °FOvercast.2 mph93%29.89 "HgN/A
7:00 pm39 °FMostly cloudy.3 mph87%29.86 "HgN/A
6:30 pm39 °FPassing clouds.3 mph87%29.86 "HgN/A
6:00 pm39 °FMostly cloudy.6 mph87%29.83 "HgN/A
5:30 pm41 °FMostly cloudy.9 mph87%29.83 "HgN/A
5:00 pm41 °FLight rain. Mostly cloudy.10 mph87%29.83 "HgN/A
4:30 pm41 °FLight rain. Mostly cloudy.13 mph87%29.80 "HgN/A
4:00 pm41 °FDrizzle. Partly sunny.5 mph100%29.80 "Hg4 mi
3:30 pm41 °FFog.3 mph93%29.80 "Hg3 mi
3:00 pm41 °FLight rain. Fog.2 mph93%29.80 "Hg2 mi
2:30 pm41 °FLight rain. Fog.6 mph93%29.80 "Hg2 mi
2:00 pm41 °FRain. Fog.No wind93%29.77 "Hg2 mi
1:30 pm41 °FLow clouds.2 mph93%29.77 "Hg4 mi
1:00 pm41 °FFog.2 mph93%29.80 "Hg3 mi
12:30 pm39 °FLight rain. Fog.3 mph93%29.80 "Hg3 mi
12:00 pm39 °FMore clouds than sun.3 mph93%29.80 "Hg4 mi
11:30 am39 °FMore clouds than sun.2 mph93%29.80 "Hg4 mi
11:00 am39 °FFog.2 mph93%29.80 "Hg3 mi
Weather by CustomWeather, © 2022

See weather overview